createdAt,value
2019-05-13T00:02:14.816Z,8.88
2019-05-13T00:04:45.528Z,8.81
2019-05-13T00:07:16.069Z,8.72
2019-05-13T00:09:47.177Z,8.64
2019-05-13T00:12:19.607Z,8.56
2019-05-13T00:15:11.152Z,8.50
2019-05-13T00:17:44.333Z,8.42
2019-05-13T00:20:15.007Z,8.39
2019-05-13T00:22:45.153Z,8.31
2019-05-13T00:25:15.350Z,8.22
2019-05-13T00:27:45.162Z,8.12
2019-05-13T00:30:14.882Z,8.06
2019-05-13T00:32:44.871Z,8.00
2019-05-13T00:35:14.617Z,7.96
2019-05-13T00:37:44.523Z,7.94
2019-05-13T00:40:14.712Z,7.87
2019-05-13T00:42:44.708Z,7.81
2019-05-13T00:45:14.761Z,7.74
2019-05-13T00:47:44.326Z,7.62
2019-05-13T00:50:14.490Z,7.49
2019-05-13T00:52:45.121Z,7.39
2019-05-13T00:55:15.102Z,7.31
2019-05-13T00:57:44.681Z,7.27
2019-05-13T01:00:14.439Z,7.18
2019-05-13T01:02:45.801Z,7.10
2019-05-13T01:05:15.630Z,7.04
2019-05-13T01:07:45.137Z,7.02
2019-05-13T01:10:14.846Z,6.98
2019-05-13T01:12:44.828Z,6.95
2019-05-13T01:15:15.223Z,7.01
2019-05-13T01:17:45.934Z,6.98
2019-05-13T01:20:15.835Z,6.96
2019-05-13T01:22:45.410Z,6.93
2019-05-13T01:25:15.026Z,6.88
2019-05-13T01:27:44.611Z,6.86
2019-05-13T01:30:14.969Z,6.76
2019-05-13T01:32:45.059Z,6.70
2019-05-13T01:35:15.082Z,6.62
2019-05-13T01:37:46.050Z,6.59
2019-05-13T01:40:15.880Z,6.52
2019-05-13T01:42:45.651Z,6.47
2019-05-13T01:45:15.514Z,6.46
2019-05-13T01:47:44.959Z,6.45
2019-05-13T01:50:15.065Z,6.39
2019-05-13T01:52:44.903Z,6.33
2019-05-13T01:55:14.972Z,6.22
2019-05-13T01:57:44.807Z,6.16
2019-05-13T02:00:15.229Z,6.07
2019-05-13T02:02:45.097Z,6.08
2019-05-13T02:05:14.573Z,5.99
2019-05-13T02:07:57.057Z,5.95
2019-05-13T02:10:17.167Z,5.92
2019-05-13T02:12:47.167Z,5.86
2019-05-13T02:15:17.026Z,5.86
2019-05-13T02:17:46.738Z,5.82
2019-05-13T02:20:16.253Z,5.76
2019-05-13T02:22:45.702Z,5.70
2019-05-13T02:25:15.164Z,5.72
2019-05-13T02:27:44.920Z,5.71
2019-05-13T02:30:16.129Z,5.69
2019-05-13T02:32:45.594Z,5.64
2019-05-13T02:35:15.056Z,5.61
2019-05-13T02:37:44.513Z,5.55
2019-05-13T02:40:14.325Z,5.47
2019-05-13T02:42:44.018Z,5.37
2019-05-13T02:45:33.510Z,5.31
2019-05-13T02:48:03.572Z,5.24
2019-05-13T02:50:34.067Z,5.12
2019-05-13T02:53:03.618Z,5.11
2019-05-13T02:55:33.236Z,5.10
2019-05-13T02:58:03.488Z,5.08
2019-05-13T03:00:33.227Z,5.12
2019-05-13T03:03:03.412Z,5.07
2019-05-13T03:05:32.998Z,5.16
2019-05-13T03:08:03.532Z,5.14
2019-05-13T03:10:34.595Z,5.16
2019-05-13T03:13:04.316Z,5.16
2019-05-13T03:15:35.518Z,5.06
2019-05-13T03:18:07.200Z,5.04
2019-05-13T03:20:36.676Z,5.04
2019-05-13T03:23:06.134Z,4.93
2019-05-13T03:25:35.865Z,4.94
2019-05-13T03:28:05.323Z,4.96
2019-05-13T03:30:35.788Z,4.87
2019-05-13T03:33:10.688Z,4.85
2019-05-13T03:35:37.453Z,4.76
2019-05-13T03:38:12.478Z,4.75
2019-05-13T03:40:42.494Z,4.76
2019-05-13T03:43:12.792Z,4.76
2019-05-13T03:45:43.536Z,4.80
2019-05-13T03:48:13.322Z,4.80
2019-05-13T03:50:43.522Z,4.72
2019-05-13T03:53:13.308Z,4.62
2019-05-13T03:55:43.599Z,4.67
2019-05-13T03:58:13.482Z,4.62
2019-05-13T04:00:44.034Z,4.60
2019-05-13T04:03:13.969Z,4.62
2019-05-13T04:05:43.980Z,4.68
2019-05-13T04:08:13.802Z,4.70
2019-05-13T04:10:43.336Z,4.66
2019-05-13T04:13:13.120Z,4.69
2019-05-13T04:15:42.956Z,4.72
2019-05-13T04:18:12.942Z,4.73
2019-05-13T04:20:42.639Z,4.75
2019-05-13T04:23:12.974Z,4.75
2019-05-13T04:25:44.692Z,4.72
2019-05-13T04:28:13.982Z,4.69
2019-05-13T04:30:43.793Z,4.71
2019-05-13T04:33:14.107Z,4.66
2019-05-13T04:35:43.746Z,4.65
2019-05-13T04:38:13.430Z,4.71
2019-05-13T04:40:43.236Z,4.75
2019-05-13T04:43:13.585Z,4.85
2019-05-13T04:45:43.291Z,4.86
2019-05-13T04:48:13.079Z,4.94
2019-05-13T04:50:43.245Z,5.09
2019-05-13T04:53:13.668Z,5.19
2019-05-13T04:55:43.895Z,5.28
2019-05-13T04:58:13.374Z,5.41
2019-05-13T05:00:49.694Z,5.66
2019-05-13T05:03:41.229Z,5.85
2019-05-13T05:06:32.867Z,5.99
2019-05-13T05:09:12.665Z,6.11
2019-05-13T05:12:19.070Z,6.41
2019-05-13T05:15:12.127Z,6.47
2019-05-13T05:17:56.736Z,6.50
2019-05-13T05:20:38.323Z,6.74
2019-05-13T05:23:16.681Z,7.40
2019-05-13T05:26:14.850Z,8.34
2019-05-13T05:28:55.132Z,9.26
2019-05-13T05:31:33.728Z,9.78
2019-05-13T05:34:11.421Z,9.57
2019-05-13T05:36:56.864Z,10.07
2019-05-13T05:39:27.680Z,11.09
2019-05-13T05:41:59.077Z,11.62
2019-05-13T05:44:32.469Z,12.46
2019-05-13T05:47:03.036Z,13.38
2019-05-13T05:49:32.744Z,14.06
2019-05-13T05:52:06.882Z,14.06
2019-05-13T05:54:38.287Z,14.78
2019-05-13T05:57:09.036Z,15.59
2019-05-13T05:59:38.964Z,15.74
2019-05-13T06:02:08.742Z,16.10
2019-05-13T06:04:38.376Z,16.16
2019-05-13T06:07:07.894Z,16.73
2019-05-13T06:09:37.340Z,16.07
2019-05-13T06:12:07.233Z,17.13
2019-05-13T06:14:36.752Z,16.20
2019-05-13T06:17:06.266Z,16.83
2019-05-13T06:19:35.736Z,17.84
2019-05-13T06:22:05.554Z,17.84
2019-05-13T06:24:35.008Z,17.56
2019-05-13T06:27:04.593Z,17.38
2019-05-13T06:29:34.700Z,18.28
2019-05-13T06:32:18.250Z,17.00
2019-05-13T06:34:35.376Z,17.78
2019-05-13T06:37:05.261Z,17.48
2019-05-13T06:39:35.080Z,18.92
2019-05-13T06:42:04.537Z,18.68
2019-05-13T06:44:33.983Z,18.33
2019-05-13T06:47:03.520Z,18.42
2019-05-13T06:49:32.993Z,19.21
2019-05-13T06:52:02.451Z,19.80
2019-05-13T06:54:32.881Z,19.32
2019-05-13T06:57:05.493Z,19.20
2019-05-13T06:59:34.424Z,19.71
2019-05-13T07:02:04.039Z,19.07
2019-05-13T07:04:33.519Z,20.06
2019-05-13T07:07:12.275Z,19.14
2019-05-13T07:09:34.221Z,18.45
2019-05-13T07:12:03.788Z,18.93
2019-05-13T07:14:33.575Z,20.38
2019-05-13T07:17:03.029Z,19.46
2019-05-13T07:19:32.718Z,20.00
2019-05-13T07:22:03.068Z,21.13
2019-05-13T07:24:32.991Z,20.71
2019-05-13T07:27:02.506Z,19.38
2019-05-13T07:29:32.728Z,20.32
2019-05-13T07:32:02.436Z,18.94
2019-05-13T07:34:33.667Z,20.46
2019-05-13T07:37:03.086Z,19.63
2019-05-13T07:39:33.142Z,19.32
2019-05-13T07:42:05.876Z,19.59
2019-05-13T07:44:34.427Z,19.58
2019-05-13T07:47:03.979Z,19.73
2019-05-13T07:49:33.589Z,20.03
2019-05-13T07:52:03.041Z,19.55
2019-05-13T07:54:33.321Z,21.04
2019-05-13T07:57:02.887Z,20.16
2019-05-13T07:59:32.347Z,20.73
2019-05-13T08:02:02.591Z,21.22
2019-05-13T08:04:33.500Z,22.25
2019-05-13T08:07:03.304Z,22.29
2019-05-13T08:09:32.808Z,22.82
2019-05-13T08:12:09.894Z,23.13
2019-05-13T08:14:34.121Z,21.96
2019-05-13T08:17:03.588Z,22.81
2019-05-13T08:19:33.061Z,22.85
2019-05-13T08:22:02.716Z,23.05
2019-05-13T08:24:32.383Z,23.83
2019-05-13T08:27:02.443Z,23.95
2019-05-13T08:29:33.038Z,23.31
2019-05-13T08:32:03.226Z,22.65
2019-05-13T08:34:33.205Z,22.31
2019-05-13T08:37:03.379Z,22.36
2019-05-13T08:39:38.104Z,22.87
2019-05-13T08:42:15.157Z,23.72
2019-05-13T08:44:35.821Z,22.94
2019-05-13T08:47:05.281Z,23.50
2019-05-13T08:49:34.817Z,23.64
2019-05-13T08:52:04.346Z,22.72
2019-05-13T08:54:34.406Z,23.32
2019-05-13T08:57:03.946Z,22.76
2019-05-13T08:59:33.729Z,21.93
2019-05-13T09:02:03.612Z,20.36
2019-05-13T09:04:33.141Z,20.41
2019-05-13T09:07:03.496Z,22.56
2019-05-13T09:09:32.935Z,21.38
2019-05-13T09:12:02.872Z,21.21
2019-05-13T09:14:32.752Z,21.36
2019-05-13T09:17:02.475Z,21.05
2019-05-13T09:19:32.541Z,20.16
2019-05-13T09:22:03.359Z,21.84
2019-05-13T09:24:37.515Z,20.47
2019-05-13T09:27:04.288Z,20.65
2019-05-13T09:29:33.742Z,18.47
2019-05-13T09:32:04.072Z,17.07
2019-05-13T09:34:33.951Z,18.53
2019-05-13T09:37:03.583Z,20.19
2019-05-13T09:39:33.039Z,21.98
2019-05-13T09:42:03.232Z,21.18
2019-05-13T09:44:33.215Z,21.95
2019-05-13T09:47:03.062Z,22.08
2019-05-13T09:49:33.223Z,19.38
2019-05-13T09:52:02.778Z,20.14
2019-05-13T09:54:33.152Z,20.80
2019-05-13T09:57:03.133Z,19.74
2019-05-13T09:59:32.577Z,21.67
2019-05-13T10:02:03.345Z,22.39
2019-05-13T10:04:33.131Z,22.28
2019-05-13T10:07:02.827Z,21.95
2019-05-13T10:09:33.029Z,22.08
2019-05-13T10:12:03.501Z,20.74
2019-05-13T10:14:33.384Z,20.69
2019-05-13T10:17:06.161Z,20.79
2019-05-13T10:19:34.515Z,21.47
2019-05-13T10:22:04.125Z,22.26
2019-05-13T10:24:33.740Z,21.01
2019-05-13T10:27:03.405Z,19.95
2019-05-13T10:29:33.022Z,21.48
2019-05-13T10:32:03.706Z,19.84
2019-05-13T10:34:33.851Z,22.60
2019-05-13T10:37:03.371Z,20.73
2019-05-13T10:39:34.051Z,21.85
2019-05-13T10:42:03.996Z,21.87
2019-05-13T10:44:33.873Z,20.94
2019-05-13T10:47:03.332Z,20.04
2019-05-13T10:52:04.028Z,18.46
2019-05-13T10:54:33.502Z,18.39
2019-05-13T10:57:03.957Z,17.24
2019-05-13T10:59:33.731Z,16.10
2019-05-13T11:02:03.186Z,16.26
2019-05-13T11:04:32.970Z,16.84
2019-05-13T11:07:03.229Z,19.18
2019-05-13T11:09:32.954Z,20.51
2019-05-13T11:12:03.595Z,22.02
2019-05-13T11:14:33.069Z,23.16
2019-05-13T11:17:02.519Z,24.20
2019-05-13T11:19:36.142Z,24.03
2019-05-13T11:22:03.448Z,22.70
2019-05-13T11:24:32.978Z,23.96
2019-05-13T11:27:02.981Z,23.54
2019-05-13T11:29:32.777Z,21.38
2019-05-13T11:32:02.953Z,20.48
2019-05-13T11:34:33.111Z,19.84
2019-05-13T11:37:03.565Z,18.33
2019-05-13T11:39:33.438Z,17.00
2019-05-13T11:42:03.001Z,16.59
2019-05-13T11:44:32.705Z,17.25
2019-05-13T11:47:02.845Z,19.47
2019-05-13T11:49:32.711Z,19.74
2019-05-13T11:52:02.834Z,18.56
2019-05-13T11:54:32.711Z,18.04
2019-05-13T11:57:06.222Z,17.31
2019-05-13T11:59:33.314Z,20.41
2019-05-13T12:02:04.574Z,22.16
2019-05-13T12:04:34.896Z,23.95
2019-05-13T12:07:04.646Z,23.86
2019-05-13T12:09:34.105Z,25.01
2019-05-13T12:12:03.727Z,24.55
2019-05-13T12:14:44.336Z,22.14
2019-05-13T12:17:04.358Z,20.92
2019-05-13T12:19:33.850Z,20.90
2019-05-13T12:22:03.393Z,20.04
2019-05-13T12:24:32.994Z,18.86
2019-05-13T12:27:03.775Z,18.90
2019-05-13T12:29:33.623Z,18.18
2019-05-13T12:32:03.470Z,18.84
2019-05-13T12:34:40.518Z,20.35
2019-05-13T12:37:04.618Z,20.79
2019-05-13T12:39:34.609Z,21.46
2019-05-13T12:42:04.062Z,20.68
2019-05-13T12:44:33.906Z,19.88
2019-05-13T12:47:03.597Z,20.33
2019-05-13T12:49:36.469Z,21.05
2019-05-13T12:52:04.845Z,21.53
2019-05-13T12:54:34.821Z,23.93
2019-05-13T12:57:11.235Z,23.06
2019-05-13T12:59:35.532Z,22.19
2019-05-13T13:02:05.007Z,21.47
2019-05-13T13:04:34.529Z,20.99
2019-05-13T13:07:04.060Z,20.98
2019-05-13T13:09:33.879Z,19.20
2019-05-13T13:12:04.023Z,18.86
2019-05-13T13:14:38.511Z,18.26
2019-05-13T13:17:05.115Z,18.49
2019-05-13T13:19:34.844Z,18.12
2019-05-13T13:22:07.856Z,18.59
2019-05-13T13:24:35.618Z,20.08
2019-05-13T13:27:14.536Z,20.04
2019-05-13T13:29:36.678Z,20.26
2019-05-13T13:32:06.131Z,19.92
2019-05-13T13:34:35.617Z,19.68
2019-05-13T13:37:05.475Z,18.71
2019-05-13T13:39:35.253Z,17.90
2019-05-13T13:42:05.843Z,17.58
2019-05-13T13:44:35.459Z,17.40
2019-05-13T13:47:04.923Z,17.00
2019-05-13T13:49:35.294Z,16.89
2019-05-13T13:52:05.239Z,17.09
2019-05-13T13:54:34.951Z,16.07
2019-05-13T13:57:04.444Z,16.44
2019-05-13T13:59:35.956Z,15.59
2019-05-13T14:02:05.778Z,15.72
2019-05-13T14:04:35.356Z,15.76
2019-05-13T14:07:02.559Z,18.46
2019-05-13T14:09:36.026Z,15.80
2019-05-13T14:12:05.494Z,15.76
2019-05-13T14:14:34.951Z,15.77
2019-05-13T14:17:04.416Z,16.06
2019-05-13T14:19:33.869Z,16.08
2019-05-13T14:22:03.615Z,16.44
2019-05-13T14:24:33.263Z,16.18
2019-05-13T14:27:03.204Z,15.79
2019-05-13T14:29:40.520Z,15.84
2019-05-13T14:32:04.007Z,16.13
2019-05-13T14:34:33.536Z,15.95
2019-05-13T14:37:03.065Z,16.19
2019-05-13T14:39:35.677Z,16.08
2019-05-13T14:42:03.689Z,16.01
2019-05-13T14:44:33.180Z,16.22
2019-05-13T14:47:02.667Z,16.77
2019-05-13T14:49:32.115Z,18.12
2019-05-13T14:52:01.582Z,18.91
2019-05-13T14:54:31.470Z,18.12
2019-05-13T14:57:02.408Z,17.50
2019-05-13T14:59:32.046Z,16.70
2019-05-13T15:02:01.557Z,16.99
2019-05-13T15:04:32.497Z,17.00
2019-05-13T15:07:02.607Z,16.79
2019-05-13T15:09:32.344Z,16.66
2019-05-13T15:12:02.488Z,17.26
2019-05-13T15:14:32.251Z,17.00
2019-05-13T15:17:06.319Z,16.72
2019-05-13T15:19:33.111Z,16.33
2019-05-13T15:22:02.909Z,16.08
2019-05-13T15:24:32.660Z,15.47
2019-05-13T15:27:02.372Z,15.24
2019-05-13T15:29:31.874Z,15.42
2019-05-13T15:32:02.128Z,16.10
2019-05-13T15:34:32.132Z,17.25
2019-05-13T15:37:02.297Z,17.61
2019-05-13T15:39:31.775Z,17.71
2019-05-13T15:42:02.014Z,17.47
2019-05-13T15:44:32.622Z,17.11
2019-05-13T15:47:18.161Z,16.63
2019-05-13T15:49:33.655Z,16.15
2019-05-13T15:52:03.140Z,16.02
2019-05-13T15:54:32.894Z,15.68
2019-05-13T15:57:02.615Z,15.64
2019-05-13T15:59:32.315Z,15.53
2019-05-13T16:02:02.431Z,15.80
2019-05-13T16:04:32.213Z,15.72
2019-05-13T16:07:01.888Z,15.86
2019-05-13T16:09:31.608Z,16.16
2019-05-13T16:12:01.690Z,16.03
2019-05-13T16:14:31.745Z,16.27
2019-05-13T16:17:01.353Z,16.50
2019-05-13T16:19:32.658Z,16.64
2019-05-13T16:22:02.152Z,15.98
2019-05-13T16:24:32.282Z,15.41
2019-05-13T16:27:02.754Z,15.31
2019-05-13T16:29:32.287Z,15.21
2019-05-13T16:32:01.826Z,15.48
2019-05-13T16:34:31.943Z,15.70
2019-05-13T16:37:02.107Z,15.87
2019-05-13T16:39:32.221Z,16.11
2019-05-13T16:42:01.766Z,16.71
2019-05-13T16:44:32.005Z,16.93
2019-05-13T16:47:02.090Z,17.09
2019-05-13T16:49:32.012Z,16.71
2019-05-13T16:52:02.537Z,16.21
2019-05-13T16:54:33.069Z,15.84
2019-05-13T16:57:02.791Z,15.43
2019-05-13T16:59:32.237Z,15.51
2019-05-13T17:02:02.038Z,15.66
2019-05-13T17:04:32.290Z,15.73
2019-05-13T17:07:01.883Z,15.56
2019-05-13T17:09:32.401Z,15.53
2019-05-13T17:12:01.978Z,15.30
2019-05-13T17:14:32.286Z,15.43
2019-05-13T17:17:02.212Z,15.68
2019-05-13T17:19:32.003Z,15.64
2019-05-13T17:22:02.486Z,15.27
2019-05-13T17:24:32.371Z,14.97
2019-05-13T17:27:02.724Z,14.89
2019-05-13T17:29:32.542Z,14.72
2019-05-13T17:32:02.573Z,14.55
2019-05-13T17:34:32.178Z,14.36
2019-05-13T17:37:02.751Z,14.10
2019-05-13T17:39:32.411Z,13.92
2019-05-13T17:42:02.197Z,13.61
2019-05-13T17:44:32.068Z,13.52
2019-05-13T17:47:02.143Z,13.52
2019-05-13T17:49:32.026Z,13.36
2019-05-13T17:52:02.510Z,13.30
2019-05-13T17:54:32.292Z,13.25
2019-05-13T17:57:02.174Z,13.14
2019-05-13T17:59:31.853Z,13.04
2019-05-13T18:02:02.662Z,12.87
2019-05-13T18:04:32.327Z,12.58
2019-05-13T18:07:01.940Z,12.58
2019-05-13T18:09:32.039Z,12.38
2019-05-13T18:12:02.397Z,12.07
2019-05-13T18:14:32.174Z,12.07
2019-05-13T18:17:02.359Z,11.90
2019-05-13T18:19:31.982Z,11.77
2019-05-13T18:22:02.172Z,11.59
2019-05-13T18:24:32.289Z,11.48
2019-05-13T18:27:02.105Z,11.41
2019-05-13T18:29:31.940Z,11.36
2019-05-13T18:32:01.990Z,11.29
2019-05-13T18:34:32.295Z,11.26
2019-05-13T18:37:02.675Z,11.22
2019-05-13T18:39:32.434Z,11.16
2019-05-13T18:42:01.839Z,11.13
2019-05-13T18:44:31.765Z,11.05
2019-05-13T18:47:01.719Z,11.00
2019-05-13T18:49:31.793Z,10.96
2019-05-13T18:52:01.428Z,10.95
2019-05-13T18:54:31.638Z,10.91
2019-05-13T18:57:01.773Z,10.86
2019-05-13T18:59:32.172Z,10.77
2019-05-13T19:02:01.846Z,10.73
2019-05-13T19:04:31.522Z,10.61
2019-05-13T19:07:02.333Z,10.52
2019-05-13T19:09:32.031Z,10.42
2019-05-13T19:12:01.671Z,10.28
2019-05-13T19:14:31.917Z,10.21
2019-05-13T19:17:01.851Z,10.10
2019-05-13T19:19:31.790Z,9.96
2019-05-13T19:22:02.305Z,9.78
2019-05-13T19:24:31.832Z,9.59
2019-05-13T19:27:01.891Z,9.45
2019-05-13T19:29:32.001Z,9.35
2019-05-13T19:32:01.901Z,9.31
2019-05-13T19:34:32.274Z,9.21
2019-05-13T19:37:02.598Z,9.12
2019-05-13T19:39:32.054Z,9.13
2019-05-13T19:42:01.508Z,9.08
2019-05-13T19:44:31.575Z,9.00
2019-05-13T19:47:01.977Z,8.96
2019-05-13T19:49:36.128Z,8.84
2019-05-13T19:52:02.790Z,8.77
2019-05-13T19:54:32.652Z,8.68
2019-05-13T19:57:02.115Z,8.55
2019-05-13T19:59:32.207Z,8.48
2019-05-13T20:02:01.929Z,8.43
2019-05-13T20:04:31.499Z,8.41
2019-05-13T20:07:01.145Z,8.29
2019-05-13T20:09:32.193Z,8.21
2019-05-13T20:12:02.190Z,8.13
2019-05-13T20:14:31.643Z,8.08
2019-05-13T20:17:01.626Z,8.10
2019-05-13T20:19:46.028Z,8.15
2019-05-13T20:22:02.549Z,8.30
2019-05-13T20:24:32.196Z,8.53
2019-05-13T20:27:02.103Z,8.77
2019-05-13T20:29:31.539Z,8.96
2019-05-13T20:32:01.470Z,9.07
2019-05-13T20:34:31.768Z,9.14
2019-05-13T20:37:02.076Z,9.20
2019-05-13T20:39:32.205Z,9.23
2019-05-13T20:42:01.883Z,9.28
2019-05-13T20:44:31.604Z,9.39
2019-05-13T20:47:01.742Z,9.44
2019-05-13T20:49:31.469Z,9.48
2019-05-13T20:52:00.976Z,9.53
2019-05-13T20:54:31.438Z,9.55
2019-05-13T20:57:01.958Z,9.58
2019-05-13T20:59:32.342Z,9.65
2019-05-13T21:02:02.455Z,9.69
2019-05-13T21:04:32.502Z,9.68
2019-05-13T21:07:02.310Z,9.76
2019-05-13T21:09:31.820Z,9.76
2019-05-13T21:12:01.917Z,9.77
2019-05-13T21:14:32.099Z,9.76
2019-05-13T21:17:02.226Z,9.72
2019-05-13T21:19:39.308Z,9.70
2019-05-13T21:22:03.285Z,9.66
2019-05-13T21:24:32.720Z,9.56
2019-05-13T21:27:02.274Z,9.52
2019-05-13T21:29:32.430Z,9.53
2019-05-13T21:32:02.082Z,9.47
2019-05-13T21:34:31.745Z,9.38
2019-05-13T21:37:02.389Z,9.30
2019-05-13T21:39:32.206Z,9.19
2019-05-13T21:42:02.472Z,9.08
2019-05-13T21:44:32.690Z,8.96
2019-05-13T21:47:02.378Z,8.86
2019-05-13T21:49:32.204Z,8.72
2019-05-13T21:52:01.657Z,8.58
2019-05-13T21:54:33.562Z,8.38
2019-05-13T21:57:02.620Z,8.20
2019-05-13T21:59:32.206Z,8.09
2019-05-13T22:02:02.292Z,8.05
2019-05-13T22:04:31.747Z,7.98
2019-05-13T22:07:01.711Z,7.94
2019-05-13T22:09:32.014Z,7.93
2019-05-13T22:12:02.103Z,7.80
2019-05-13T22:14:32.136Z,7.72
2019-05-13T22:17:01.896Z,7.56
2019-05-13T22:19:31.721Z,7.50
2019-05-13T22:22:02.242Z,7.39
2019-05-13T22:24:32.010Z,7.34
2019-05-13T22:27:02.058Z,7.14
2019-05-13T22:29:32.128Z,6.98
2019-05-13T22:32:02.324Z,6.84
2019-05-13T22:34:32.095Z,6.69
2019-05-13T22:37:02.423Z,6.59
2019-05-13T22:39:34.634Z,6.54
2019-05-13T22:42:03.270Z,6.48
2019-05-13T22:44:32.948Z,6.40
2019-05-13T22:47:02.706Z,6.36
2019-05-13T22:49:32.111Z,6.28
2019-05-13T22:52:01.557Z,6.21
2019-05-13T22:57:01.243Z,5.98
2019-05-13T22:59:32.218Z,5.84
2019-05-13T23:02:01.893Z,5.73
2019-05-13T23:04:31.599Z,5.62
2019-05-13T23:07:01.438Z,5.60
2019-05-13T23:09:32.599Z,5.57
2019-05-13T23:12:02.435Z,5.46
2019-05-13T23:14:31.886Z,5.41
2019-05-13T23:17:02.336Z,5.29
2019-05-13T23:19:32.403Z,5.36
2019-05-13T23:22:02.013Z,5.27
2019-05-13T23:24:31.473Z,5.14
2019-05-13T23:27:02.111Z,5.07
2019-05-13T23:29:32.040Z,5.01
2019-05-13T23:32:01.902Z,5.04
2019-05-13T23:34:31.971Z,5.14
2019-05-13T23:37:01.524Z,5.38
2019-05-13T23:39:32.123Z,5.59
2019-05-13T23:42:02.070Z,5.88
2019-05-13T23:44:32.252Z,5.99
2019-05-13T23:47:01.800Z,6.08
2019-05-13T23:49:31.778Z,6.09
2019-05-13T23:52:02.505Z,6.10
2019-05-13T23:54:32.354Z,6.16
2019-05-13T23:57:01.789Z,6.23
2019-05-13T23:59:31.351Z,6.20
